createdAt,value
2018-06-04T00:00:50.161Z,31.23
2018-06-04T00:03:19.618Z,28.87
2018-06-04T00:05:48.987Z,25.80
2018-06-04T00:08:18.082Z,27.50
2018-06-04T00:10:47.504Z,30.17
2018-06-04T00:13:17.034Z,30.43
2018-06-04T00:15:46.447Z,29.50
2018-06-04T00:18:15.963Z,29.53
2018-06-04T00:20:45.290Z,27.20
2018-06-04T00:23:14.790Z,30.20
2018-06-04T00:25:44.178Z,27.70
2018-06-04T00:28:13.600Z,28.23
2018-06-04T00:30:42.959Z,25.07
2018-06-04T00:33:12.470Z,24.80
2018-06-04T00:35:41.829Z,29.00
2018-06-04T00:38:11.321Z,27.00
2018-06-04T00:40:40.714Z,27.63
2018-06-04T00:43:10.156Z,28.20
2018-06-04T00:45:39.549Z,27.97
2018-06-04T00:48:08.429Z,27.90
2018-06-04T00:50:37.679Z,25.40
2018-06-04T00:53:07.133Z,25.53
2018-06-04T00:55:47.556Z,28.73
2018-06-04T00:58:16.697Z,28.50
2018-06-04T01:00:46.196Z,26.07
2018-06-04T01:03:15.594Z,26.40
2018-06-04T01:05:45.082Z,26.87
2018-06-04T01:08:14.517Z,31.83
2018-06-04T01:10:43.991Z,28.80
2018-06-04T01:13:13.388Z,30.40
2018-06-04T01:15:42.793Z,29.50
2018-06-04T01:18:12.242Z,25.13
2018-06-04T01:20:41.650Z,28.07
2018-06-04T01:23:11.100Z,29.57
2018-06-04T01:25:40.494Z,28.33
2018-06-04T01:28:09.915Z,25.73
2018-06-04T01:30:39.298Z,28.87
2018-06-04T01:33:08.686Z,34.37
2018-06-04T01:35:38.181Z,29.23
2018-06-04T01:38:07.600Z,28.83
2018-06-04T01:40:36.759Z,26.37
2018-06-04T01:43:06.435Z,24.63
2018-06-04T01:45:35.902Z,25.43
2018-06-04T01:48:05.641Z,29.07
2018-06-04T01:50:35.059Z,28.00
2018-06-04T01:53:04.590Z,27.93
2018-06-04T01:55:34.057Z,27.00
2018-06-04T01:58:03.752Z,26.57
2018-06-04T02:00:33.157Z,24.40
2018-06-04T02:03:02.560Z,26.93
2018-06-04T02:05:32.006Z,31.13
2018-06-04T02:08:01.388Z,26.93
2018-06-04T02:10:30.889Z,24.80
2018-06-04T02:13:00.344Z,25.57
2018-06-04T02:15:29.724Z,30.67
2018-06-04T02:17:59.273Z,31.83
2018-06-04T02:20:28.648Z,24.93
2018-06-04T02:22:58.054Z,26.30
2018-06-04T02:25:27.425Z,29.47
2018-06-04T02:27:56.805Z,32.43
2018-06-04T02:30:26.001Z,26.50
2018-06-04T02:32:55.383Z,28.50
2018-06-04T02:35:24.827Z,29.33
2018-06-04T02:37:54.290Z,27.90
2018-06-04T02:40:23.809Z,29.57
2018-06-04T02:42:53.218Z,31.10
2018-06-04T02:45:22.625Z,33.10
2018-06-04T02:47:51.765Z,28.80
2018-06-04T02:50:21.271Z,29.90
2018-06-04T02:52:50.697Z,28.37
2018-06-04T02:55:20.118Z,28.90
2018-06-04T02:57:49.532Z,30.13
2018-06-04T03:00:19.050Z,25.73
2018-06-04T03:02:48.454Z,27.13
2018-06-04T03:05:17.886Z,29.00
2018-06-04T03:07:47.291Z,29.53
2018-06-04T03:10:16.689Z,28.27
2018-06-04T03:12:46.082Z,31.43
2018-06-04T03:15:15.580Z,29.50
2018-06-04T03:17:44.970Z,31.90
2018-06-04T03:20:14.430Z,30.83
2018-06-04T03:22:43.845Z,28.50
2018-06-04T03:25:13.327Z,30.80
2018-06-04T03:27:42.752Z,32.47
2018-06-04T03:30:12.201Z,26.83
2018-06-04T03:32:41.598Z,27.03
2018-06-04T03:35:11.106Z,28.80
2018-06-04T03:37:40.496Z,30.77
2018-06-04T03:40:09.876Z,28.40
2018-06-04T03:42:39.401Z,28.63
2018-06-04T03:45:08.804Z,25.57
2018-06-04T03:47:38.265Z,29.13
2018-06-04T03:50:07.777Z,28.07
2018-06-04T03:52:37.304Z,26.80
2018-06-04T03:55:06.853Z,28.53
2018-06-04T03:57:36.322Z,38.57
2018-06-04T04:00:05.740Z,32.33
2018-06-04T04:02:35.240Z,27.13
2018-06-04T04:05:04.653Z,27.23
2018-06-04T04:07:34.049Z,31.73
2018-06-04T04:10:03.472Z,30.00
2018-06-04T04:12:32.915Z,29.80
2018-06-04T04:15:02.349Z,29.33
2018-06-04T04:17:32.583Z,29.20
2018-06-04T04:20:02.018Z,26.77
2018-06-04T04:22:31.277Z,29.80
2018-06-04T04:25:00.773Z,26.43
2018-06-04T04:27:30.257Z,30.00
2018-06-04T04:29:59.722Z,32.70
2018-06-04T04:32:29.190Z,25.60
2018-06-04T04:34:58.561Z,32.20
2018-06-04T04:37:27.929Z,28.83
2018-06-04T04:39:57.397Z,35.87
2018-06-04T04:42:26.899Z,32.97
2018-06-04T04:44:56.309Z,27.60
2018-06-04T04:47:25.804Z,33.30
2018-06-04T04:49:55.174Z,31.40
2018-06-04T04:52:24.637Z,32.10
2018-06-04T04:54:54.041Z,29.90
2018-06-04T04:57:23.481Z,32.03
2018-06-04T04:59:52.834Z,31.10
2018-06-04T05:02:23.336Z,36.27
2018-06-04T05:04:52.784Z,34.17
2018-06-04T05:07:22.246Z,30.93
2018-06-04T05:09:51.702Z,33.30
2018-06-04T05:12:22.213Z,37.93
2018-06-04T05:14:51.885Z,32.83
2018-06-04T05:17:21.303Z,35.80
2018-06-04T05:19:50.654Z,33.53
2018-06-04T05:22:20.162Z,29.20
2018-06-04T05:24:49.564Z,34.63
2018-06-04T05:27:18.753Z,29.97
2018-06-04T05:29:48.654Z,34.13
2018-06-04T05:32:18.267Z,32.60
2018-06-04T05:34:47.749Z,33.87
2018-06-04T05:37:17.129Z,34.80
2018-06-04T05:39:46.542Z,35.00
2018-06-04T05:42:16.097Z,32.40
2018-06-04T05:44:45.644Z,32.33
2018-06-04T05:47:15.166Z,31.97
2018-06-04T05:49:44.572Z,33.20
2018-06-04T05:52:14.001Z,34.57
2018-06-04T05:54:43.425Z,34.73
2018-06-04T05:57:12.501Z,34.10
2018-06-04T05:59:42.849Z,31.93
2018-06-04T06:02:12.243Z,32.17
2018-06-04T06:04:42.076Z,34.40
2018-06-04T06:07:11.489Z,32.93
2018-06-04T06:09:40.969Z,34.50
2018-06-04T06:12:10.357Z,32.00
2018-06-04T06:14:39.807Z,28.07
2018-06-04T06:17:09.238Z,31.90
2018-06-04T06:19:38.716Z,24.70
2018-06-04T06:22:08.169Z,32.87
2018-06-04T06:24:38.015Z,18.93
2018-06-04T06:27:07.700Z,25.93
2018-06-04T06:29:37.175Z,26.37
2018-06-04T06:32:06.567Z,23.33
2018-06-04T06:34:36.091Z,19.50
2018-06-04T06:37:05.844Z,26.63
2018-06-04T06:39:35.234Z,22.27
2018-06-04T06:42:04.326Z,23.70
2018-06-04T06:44:33.643Z,22.60
2018-06-04T06:47:02.720Z,14.13
2018-06-04T06:49:32.135Z,17.57
2018-06-04T06:52:01.572Z,26.40
2018-06-04T06:54:30.721Z,14.80
2018-06-04T06:57:00.241Z,15.03
2018-06-04T06:59:29.715Z,23.77
2018-06-04T07:01:59.144Z,14.93
2018-06-04T07:04:28.796Z,13.97
2018-06-04T07:06:58.284Z,15.23
2018-06-04T07:09:27.698Z,19.30
2018-06-04T07:11:57.121Z,17.87
2018-06-04T07:14:26.288Z,15.97
2018-06-04T07:16:55.968Z,21.10
2018-06-04T07:19:25.365Z,18.90
2018-06-04T07:21:54.907Z,15.87
2018-06-04T07:24:24.285Z,21.63
2018-06-04T07:26:53.746Z,14.67
2018-06-04T07:29:23.145Z,14.10
2018-06-04T07:31:52.595Z,14.17
2018-06-04T07:34:21.950Z,19.73
2018-06-04T07:36:51.422Z,15.10
2018-06-04T07:39:20.813Z,13.60
2018-06-04T07:41:50.006Z,14.63
2018-06-04T07:44:19.466Z,13.67
2018-06-04T07:46:49.122Z,13.60
2018-06-04T07:49:18.518Z,15.73
2018-06-04T07:51:47.970Z,18.30
2018-06-04T07:54:17.363Z,12.63
2018-06-04T07:56:46.801Z,15.63
2018-06-04T07:59:16.172Z,13.47
2018-06-04T08:01:46.138Z,13.73
2018-06-04T08:04:15.555Z,14.97
2018-06-04T08:06:45.610Z,14.63
2018-06-04T08:09:15.343Z,14.23
2018-06-04T08:11:44.524Z,12.73
2018-06-04T08:14:13.948Z,17.10
2018-06-04T08:16:43.323Z,14.40
2018-06-04T08:19:12.767Z,13.53
2018-06-04T08:21:42.247Z,16.87
2018-06-04T08:24:11.735Z,12.47
2018-06-04T08:26:42.711Z,15.43
2018-06-04T08:29:12.104Z,14.50
2018-06-04T08:31:41.525Z,16.03
2018-06-04T08:34:10.990Z,13.53
2018-06-04T08:36:40.485Z,14.83
2018-06-04T08:39:10.238Z,12.17
2018-06-04T08:41:39.741Z,11.07
2018-06-04T08:44:09.135Z,10.23
2018-06-04T08:46:38.579Z,11.27
2018-06-04T08:49:08.029Z,11.47
2018-06-04T08:51:37.445Z,11.93
2018-06-04T08:54:06.633Z,10.43
2018-06-04T08:56:36.136Z,10.57
2018-06-04T08:59:05.485Z,11.10
2018-06-04T09:01:34.983Z,13.53
2018-06-04T09:04:04.745Z,11.33
2018-06-04T09:06:34.125Z,10.67
2018-06-04T09:09:03.531Z,10.60
2018-06-04T09:11:32.635Z,11.43
2018-06-04T09:14:02.038Z,11.30
2018-06-04T09:16:31.421Z,9.70
2018-06-04T09:19:00.908Z,9.80
2018-06-04T09:21:30.278Z,9.87
2018-06-04T09:23:59.711Z,9.53
2018-06-04T09:26:29.304Z,9.00
2018-06-04T09:28:58.773Z,9.30
2018-06-04T09:31:28.110Z,10.33
2018-06-04T09:33:57.741Z,10.37
2018-06-04T09:36:27.290Z,9.00
2018-06-04T09:38:57.809Z,8.83
2018-06-04T09:41:27.221Z,11.10
2018-06-04T09:43:56.616Z,8.60
2018-06-04T09:46:26.093Z,9.70
2018-06-04T09:48:55.578Z,8.30
2018-06-04T09:51:24.994Z,9.80
2018-06-04T09:53:54.448Z,9.87
2018-06-04T09:56:24.023Z,10.80
2018-06-04T09:58:53.442Z,8.50
2018-06-04T10:01:22.876Z,11.80
2018-06-04T10:03:52.280Z,7.80
2018-06-04T10:06:21.844Z,8.90
2018-06-04T10:08:51.360Z,11.67
2018-06-04T10:11:20.726Z,10.63
2018-06-04T10:13:50.156Z,9.03
2018-06-04T10:16:19.511Z,9.80
2018-06-04T10:18:49.018Z,7.67
2018-06-04T10:21:18.381Z,8.77
2018-06-04T10:23:47.972Z,8.33
2018-06-04T10:26:18.317Z,8.47
2018-06-04T10:28:47.698Z,9.20
2018-06-04T10:31:17.063Z,8.60
2018-06-04T10:33:46.476Z,7.53
2018-06-04T10:36:16.026Z,8.97
2018-06-04T10:38:45.412Z,8.00
2018-06-04T10:41:14.975Z,8.10
2018-06-04T10:43:44.140Z,8.23
2018-06-04T10:46:13.478Z,7.80
2018-06-04T10:48:42.589Z,7.80
2018-06-04T10:51:11.969Z,8.30
2018-06-04T10:53:41.153Z,7.60
2018-06-04T10:56:10.670Z,9.37
2018-06-04T10:58:40.023Z,8.00
2018-06-04T11:01:09.444Z,7.70
2018-06-04T11:03:38.871Z,7.33
2018-06-04T11:06:08.409Z,7.27
2018-06-04T11:08:37.822Z,7.50
2018-06-04T11:11:07.357Z,7.60
2018-06-04T11:13:36.753Z,7.90
2018-06-04T11:16:06.481Z,7.60
2018-06-04T11:18:35.829Z,7.43
2018-06-04T11:21:05.245Z,7.80
2018-06-04T11:23:34.352Z,8.40
2018-06-04T11:26:03.852Z,7.80
2018-06-04T11:28:33.429Z,8.40
2018-06-04T11:31:02.562Z,7.67
2018-06-04T11:33:31.943Z,8.07
2018-06-04T11:36:01.348Z,8.67
2018-06-04T11:38:30.752Z,7.10
2018-06-04T11:41:01.085Z,8.23
2018-06-04T11:43:30.504Z,11.37
2018-06-04T11:45:59.926Z,7.37
2018-06-04T11:48:29.351Z,7.70
2018-06-04T11:50:58.749Z,9.10
2018-06-04T11:53:28.514Z,6.67
2018-06-04T11:55:57.868Z,7.03
2018-06-04T11:58:27.251Z,6.90
2018-06-04T12:00:56.751Z,6.13
2018-06-04T12:03:26.148Z,6.60
2018-06-04T12:05:55.580Z,7.90
2018-06-04T12:08:25.128Z,8.63
2018-06-04T12:10:54.493Z,6.50
2018-06-04T12:13:23.973Z,6.37
2018-06-04T12:15:53.328Z,8.17
2018-06-04T12:18:22.753Z,6.60
2018-06-04T12:20:52.122Z,7.90
2018-06-04T12:23:21.518Z,6.97
2018-06-04T12:25:50.878Z,7.33
2018-06-04T12:28:20.283Z,6.17
2018-06-04T12:30:50.045Z,7.03
2018-06-04T12:33:19.129Z,6.30
2018-06-04T12:35:48.521Z,5.93
2018-06-04T12:38:17.891Z,5.73
2018-06-04T12:40:47.318Z,7.20
2018-06-04T12:43:16.648Z,5.50
2018-06-04T12:45:46.121Z,6.70
2018-06-04T12:48:15.521Z,5.87
2018-06-04T12:50:44.923Z,5.30
2018-06-04T12:53:14.298Z,6.10
2018-06-04T12:55:43.676Z,6.73
2018-06-04T12:58:13.102Z,5.73
2018-06-04T13:00:42.215Z,6.90
2018-06-04T13:03:11.625Z,8.60
2018-06-04T13:05:41.005Z,5.37
2018-06-04T13:08:10.404Z,6.07
2018-06-04T13:10:39.816Z,5.70
2018-06-04T13:13:09.220Z,6.07
2018-06-04T13:15:38.601Z,6.13
2018-06-04T13:18:08.033Z,6.60
2018-06-04T13:20:37.429Z,5.03
2018-06-04T13:23:06.811Z,7.30
2018-06-04T13:25:36.189Z,5.63
2018-06-04T13:28:05.616Z,5.53
2018-06-04T13:30:34.715Z,6.00
2018-06-04T13:33:03.985Z,5.57
2018-06-04T13:35:33.375Z,5.40
2018-06-04T13:38:02.726Z,5.97
2018-06-04T13:40:32.182Z,5.47
2018-06-04T13:43:01.562Z,5.60
2018-06-04T13:45:30.977Z,5.67
2018-06-04T13:48:00.084Z,6.13
2018-06-04T13:50:29.457Z,6.40
2018-06-04T13:52:59.931Z,5.93
2018-06-04T13:55:29.065Z,5.63
2018-06-04T13:57:58.458Z,5.63
2018-06-04T14:00:27.864Z,7.23
2018-06-04T14:02:57.264Z,5.90
2018-06-04T14:05:28.723Z,7.73
2018-06-04T14:07:58.101Z,6.27
2018-06-04T14:10:27.556Z,6.10
2018-06-04T14:12:56.985Z,5.67
2018-06-04T14:15:26.382Z,5.87
2018-06-04T14:17:55.753Z,8.03
2018-06-04T14:20:24.861Z,5.07
2018-06-04T14:22:53.946Z,5.40
2018-06-04T14:25:23.413Z,7.73
2018-06-04T14:27:52.811Z,6.30
2018-06-04T14:30:22.197Z,5.80
2018-06-04T14:32:51.566Z,5.73
2018-06-04T14:35:21.002Z,5.30
2018-06-04T14:40:48.823Z,5.80
2018-06-04T14:43:18.297Z,6.03
2018-06-04T14:45:47.646Z,6.47
2018-06-04T14:48:17.061Z,6.00
2018-06-04T14:50:46.421Z,5.90
2018-06-04T14:53:17.872Z,7.23
2018-06-04T14:55:47.247Z,6.20
2018-06-04T14:58:16.726Z,4.90
2018-06-04T15:00:46.128Z,5.97
2018-06-04T15:03:15.537Z,5.40
2018-06-04T15:05:45.322Z,5.87
2018-06-04T15:08:15.741Z,5.90
2018-06-04T15:10:45.148Z,5.17
2018-06-04T15:13:16.996Z,5.13
2018-06-04T15:15:46.088Z,6.27
2018-06-04T15:18:17.846Z,5.30
2018-06-04T15:20:47.519Z,6.20
2018-06-04T15:23:17.258Z,5.00
2018-06-04T15:25:46.665Z,4.73
2018-06-04T15:28:16.079Z,4.70
2018-06-04T15:30:46.306Z,4.63
2018-06-04T15:33:15.717Z,5.07
2018-06-04T15:35:45.142Z,4.87
2018-06-04T15:38:14.584Z,5.27
2018-06-04T15:40:44.001Z,5.50
2018-06-04T15:43:13.645Z,6.27
2018-06-04T15:45:43.069Z,4.93
2018-06-04T15:48:12.515Z,5.27
2018-06-04T15:50:42.108Z,5.10
2018-06-04T15:53:11.501Z,5.77
2018-06-04T15:55:40.885Z,6.63
2018-06-04T15:58:11.307Z,5.00
2018-06-04T16:00:40.690Z,5.67
2018-06-04T16:03:10.109Z,6.03
2018-06-04T16:05:39.723Z,4.77
2018-06-04T16:08:09.492Z,5.80
2018-06-04T16:10:38.967Z,6.67
2018-06-04T16:13:08.409Z,6.13
2018-06-04T16:15:37.790Z,5.93
2018-06-04T16:18:08.241Z,5.80
2018-06-04T16:20:37.689Z,5.50
2018-06-04T16:23:07.145Z,6.00
2018-06-04T16:25:36.586Z,4.63
2018-06-04T16:28:06.087Z,6.17
2018-06-04T16:30:35.433Z,7.47
2018-06-04T16:33:05.279Z,5.60
2018-06-04T16:35:34.681Z,5.70
2018-06-04T16:38:04.182Z,6.97
2018-06-04T16:40:33.576Z,6.43
2018-06-04T16:43:03.180Z,7.50
2018-06-04T16:45:32.576Z,7.07
2018-06-04T16:48:02.777Z,6.80
2018-06-04T16:50:31.994Z,7.53
2018-06-04T16:53:01.529Z,6.80
2018-06-04T16:55:30.925Z,6.60
2018-06-04T16:58:00.281Z,8.40
2018-06-04T17:00:29.681Z,7.43
2018-06-04T17:03:02.872Z,10.57
2018-06-04T17:05:32.253Z,9.93
2018-06-04T17:08:01.671Z,11.30
2018-06-04T17:10:31.032Z,11.00
2018-06-04T17:13:00.419Z,10.13
2018-06-04T17:15:29.883Z,11.03
2018-06-04T17:17:59.272Z,12.00
2018-06-04T17:20:28.755Z,12.80
2018-06-04T17:22:58.268Z,10.97
2018-06-04T17:25:29.371Z,9.73
2018-06-04T17:28:00.875Z,11.03
2018-06-04T17:30:32.436Z,13.10
2018-06-04T17:33:04.058Z,12.33
2018-06-04T17:35:35.703Z,10.87
2018-06-04T17:41:04.833Z,13.63
2018-06-04T17:43:35.918Z,16.10
2018-06-04T17:46:06.372Z,14.97
2018-06-04T17:48:37.800Z,15.87
2018-06-04T17:51:09.269Z,14.60
2018-06-04T17:53:40.196Z,16.80
2018-06-04T17:56:11.721Z,13.07
2018-06-04T17:58:43.222Z,14.60
2018-06-04T18:01:15.235Z,11.87
2018-06-04T18:03:46.811Z,16.97
2018-06-04T18:06:19.208Z,17.30
2018-06-04T18:08:48.826Z,15.10
2018-06-04T18:11:18.502Z,17.80
2018-06-04T18:13:48.123Z,17.17
2018-06-04T18:16:17.768Z,20.10
2018-06-04T18:18:47.269Z,18.90
2018-06-04T18:21:16.747Z,18.00
2018-06-04T18:23:46.558Z,17.67
2018-06-04T18:26:16.020Z,19.27
2018-06-04T18:28:45.518Z,18.53
2018-06-04T18:31:15.081Z,18.27
2018-06-04T18:33:44.560Z,17.67
2018-06-04T18:36:13.970Z,21.43
2018-06-04T18:38:43.410Z,20.30
2018-06-04T18:41:13.244Z,18.63
2018-06-04T18:43:42.376Z,19.57
2018-06-04T18:46:11.811Z,17.83
2018-06-04T18:48:41.214Z,17.73
2018-06-04T18:51:11.672Z,19.50
2018-06-04T18:53:41.900Z,18.37
2018-06-04T18:56:11.640Z,16.30
2018-06-04T18:58:41.472Z,22.37
2018-06-04T19:01:10.913Z,23.97
2018-06-04T19:03:40.365Z,21.13
2018-06-04T19:06:09.729Z,22.03
2018-06-04T19:08:39.272Z,23.50
2018-06-04T19:11:08.816Z,21.00
2018-06-04T19:13:39.009Z,21.43
2018-06-04T19:16:08.855Z,22.47
2018-06-04T19:18:39.100Z,22.40
2018-06-04T19:21:08.635Z,22.70
2018-06-04T19:23:37.846Z,22.03
2018-06-04T19:26:06.972Z,21.53
2018-06-04T19:30:00.622Z,18.23
2018-06-04T19:32:30.311Z,19.47
2018-06-04T19:34:59.566Z,20.40
2018-06-04T19:37:28.972Z,22.80
2018-06-04T19:39:58.559Z,20.60
2018-06-04T19:42:28.086Z,21.70
2018-06-04T19:44:57.626Z,19.50
2018-06-04T19:47:27.650Z,19.07
2018-06-04T19:49:57.141Z,18.30
2018-06-04T19:52:26.417Z,18.53
2018-06-04T19:54:55.794Z,18.57
2018-06-04T19:57:25.050Z,20.50
2018-06-04T19:59:54.265Z,20.93
2018-06-04T20:02:23.652Z,27.67
2018-06-04T20:04:52.809Z,22.57
2018-06-04T20:07:21.942Z,21.63
2018-06-04T20:09:51.410Z,23.17
2018-06-04T20:12:20.534Z,22.30
2018-06-04T20:14:49.749Z,21.97
2018-06-04T20:17:19.348Z,21.67
2018-06-04T20:19:48.707Z,21.07
2018-06-04T20:22:17.772Z,23.03
2018-06-04T20:24:46.928Z,22.30
2018-06-04T20:27:16.111Z,22.43
2018-06-04T20:29:45.404Z,23.57
2018-06-04T20:32:14.639Z,23.03
2018-06-04T20:34:44.065Z,20.80
2018-06-04T20:37:13.223Z,22.20
2018-06-04T20:39:42.362Z,22.07
2018-06-04T20:42:11.530Z,21.10
2018-06-04T20:44:41.003Z,22.50
2018-06-04T20:47:10.828Z,23.47
2018-06-04T20:49:39.927Z,25.33
2018-06-04T20:52:09.032Z,22.37
2018-06-04T20:54:38.173Z,25.97
2018-06-04T20:57:07.278Z,23.60
2018-06-04T20:59:36.650Z,24.23
2018-06-04T21:02:06.063Z,24.47
2018-06-04T21:04:35.169Z,26.03
2018-06-04T21:07:04.274Z,22.57
2018-06-04T21:09:33.410Z,25.50
2018-06-04T21:12:02.512Z,22.80
2018-06-04T21:14:31.729Z,23.40
2018-06-04T21:17:01.079Z,31.20
2018-06-04T21:19:30.208Z,24.97
2018-06-04T21:21:59.332Z,25.83
2018-06-04T21:24:28.671Z,23.30
2018-06-04T21:26:57.774Z,25.10
2018-06-04T21:29:26.858Z,26.27
2018-06-04T21:31:56.208Z,25.90
2018-06-04T21:34:25.330Z,25.93
2018-06-04T21:36:54.810Z,27.67
2018-06-04T21:39:24.164Z,26.40
2018-06-04T21:41:53.337Z,24.57
2018-06-04T21:47:20.225Z,23.77
2018-06-04T21:49:49.336Z,22.77
2018-06-04T21:52:18.748Z,23.30
2018-06-04T21:54:48.157Z,23.10
2018-06-04T21:57:17.546Z,25.97
2018-06-04T21:59:46.699Z,24.67
2018-06-04T22:02:16.479Z,24.00
2018-06-04T22:04:45.864Z,24.17
2018-06-04T22:07:14.972Z,22.60
2018-06-04T22:09:44.088Z,22.80
2018-06-04T22:12:13.222Z,25.17
2018-06-04T22:14:42.369Z,25.27
2018-06-04T22:17:11.486Z,26.33
2018-06-04T22:19:40.612Z,22.40
2018-06-04T22:22:09.752Z,24.53
2018-06-04T22:24:38.898Z,25.47
2018-06-04T22:27:08.344Z,23.20
2018-06-04T22:29:37.615Z,24.83
2018-06-04T22:32:07.029Z,28.63
2018-06-04T22:34:36.385Z,23.57
2018-06-04T22:37:05.828Z,22.87
2018-06-04T22:39:34.926Z,23.53
2018-06-04T22:42:05.387Z,23.80
2018-06-04T22:44:34.561Z,25.53
2018-06-04T22:47:03.998Z,23.40
2018-06-04T22:49:33.389Z,25.60
2018-06-04T22:52:02.541Z,25.00
2018-06-04T22:54:31.967Z,22.93
2018-06-04T22:57:01.110Z,28.63
2018-06-04T22:59:30.550Z,25.07
2018-06-04T23:01:59.912Z,27.70
2018-06-04T23:04:29.267Z,25.57
2018-06-04T23:06:58.664Z,23.70
2018-06-04T23:09:28.076Z,27.70
2018-06-04T23:11:57.464Z,21.87
2018-06-04T23:14:26.583Z,27.60
2018-06-04T23:16:55.993Z,23.80
2018-06-04T23:19:25.155Z,27.23
2018-06-04T23:21:54.755Z,24.23
2018-06-04T23:24:24.136Z,25.80
2018-06-04T23:26:53.561Z,27.70
2018-06-04T23:29:22.928Z,26.60
2018-06-04T23:31:52.320Z,29.57
2018-06-04T23:34:21.704Z,32.20
2018-06-04T23:36:51.110Z,26.33
2018-06-04T23:39:20.517Z,31.07
2018-06-04T23:41:49.903Z,28.70
2018-06-04T23:44:19.312Z,24.97
2018-06-04T23:46:48.701Z,26.73
2018-06-04T23:49:18.173Z,26.87
2018-06-04T23:51:47.605Z,29.43
2018-06-04T23:54:16.987Z,25.53
2018-06-04T23:56:46.369Z,27.67
2018-06-04T23:59:15.783Z,25.73
